createdAt,value
2023-08-07T00:08:40.729Z,98062.00
2023-08-07T00:11:14.966Z,98068.00
2023-08-07T00:13:49.056Z,98062.00
2023-08-07T00:16:23.201Z,98058.00
2023-08-07T00:18:57.562Z,98061.00
2023-08-07T00:21:31.731Z,98066.00
2023-08-07T00:24:07.577Z,98055.00
2023-08-07T00:26:41.657Z,98055.00
2023-08-07T00:29:15.753Z,98059.00
2023-08-07T00:31:50.273Z,98057.00
2023-08-07T00:34:24.427Z,98059.00
2023-08-07T00:36:58.823Z,98067.00
2023-08-07T00:39:34.390Z,98065.00
2023-08-07T00:42:09.109Z,98071.00
2023-08-07T00:44:43.322Z,98068.00
2023-08-07T00:47:17.445Z,98071.00
2023-08-07T00:49:51.709Z,98069.00
2023-08-07T00:52:25.885Z,98065.00
2023-08-07T00:55:01.478Z,98076.00
2023-08-07T00:57:35.642Z,98071.00
2023-08-07T01:00:11.675Z,98073.00
2023-08-07T01:02:46.032Z,98072.00
2023-08-07T01:05:20.909Z,98085.00
2023-08-07T01:07:57.018Z,98079.00
2023-08-07T01:10:56.990Z,98078.00
2023-08-07T01:13:37.560Z,98078.00
2023-08-07T01:16:15.588Z,98079.00
2023-08-07T01:18:51.462Z,98078.00
2023-08-07T01:21:25.628Z,98086.00
2023-08-07T01:24:01.177Z,98084.00
2023-08-07T01:26:37.577Z,98084.00
2023-08-07T01:29:19.560Z,98085.00
2023-08-07T01:31:58.283Z,98077.00
2023-08-07T01:34:33.230Z,98084.00
2023-08-07T01:37:09.188Z,98080.00
2023-08-07T01:39:45.985Z,98086.00
2023-08-07T01:42:20.390Z,98088.00
2023-08-07T01:44:54.826Z,98089.00
2023-08-07T01:47:29.157Z,98082.00
2023-08-07T01:50:04.349Z,98081.00
2023-08-07T01:52:38.526Z,98080.00
2023-08-07T01:55:14.025Z,98081.00
2023-08-07T01:57:48.247Z,98094.00
2023-08-07T02:00:23.112Z,98091.00
2023-08-07T02:02:57.358Z,98092.00
2023-08-07T02:05:31.587Z,98093.00
2023-08-07T02:08:06.101Z,98095.00
2023-08-07T02:10:41.521Z,98101.00
2023-08-07T02:13:15.677Z,98104.00
2023-08-07T02:15:49.738Z,98094.00
2023-08-07T02:18:23.869Z,98104.00
2023-08-07T02:20:58.007Z,98102.00
2023-08-07T02:23:32.128Z,98107.00
2023-08-07T02:26:07.587Z,98103.00
2023-08-07T02:28:41.713Z,98105.00
2023-08-07T02:31:15.816Z,98105.00
2023-08-07T02:33:49.935Z,98106.00
2023-08-07T02:36:24.037Z,98103.00
2023-08-07T02:38:58.285Z,98101.00
2023-08-07T02:41:33.714Z,98110.00
2023-08-07T02:44:07.795Z,98105.00
2023-08-07T02:46:42.625Z,98108.00
2023-08-07T02:49:16.761Z,98107.00
2023-08-07T02:51:50.898Z,98119.00
2023-08-07T02:54:25.201Z,98123.00
2023-08-07T02:57:00.962Z,98119.00
2023-08-07T02:59:35.055Z,98123.00
2023-08-07T03:02:09.207Z,98126.00
2023-08-07T03:04:43.334Z,98123.00
2023-08-07T03:07:17.588Z,98120.00
2023-08-07T03:09:51.775Z,98122.00
2023-08-07T03:12:27.262Z,98121.00
2023-08-07T03:15:01.383Z,98133.00
2023-08-07T03:17:35.643Z,98131.00
2023-08-07T03:20:11.861Z,98140.00
2023-08-07T03:22:46.015Z,98140.00
2023-08-07T03:25:20.673Z,98143.00
2023-08-07T03:27:56.263Z,98141.00
2023-08-07T03:30:30.394Z,98140.00
2023-08-07T03:33:04.675Z,98143.00
2023-08-07T03:35:38.854Z,98139.00
2023-08-07T03:38:13.001Z,98140.00
2023-08-07T03:40:47.054Z,98147.00
2023-08-07T03:43:22.531Z,98145.00
2023-08-07T03:46:00.492Z,98149.00
2023-08-07T03:48:36.930Z,98149.00
2023-08-07T03:51:11.734Z,98151.00
2023-08-07T03:53:46.011Z,98151.00
2023-08-07T03:56:20.118Z,98150.00
2023-08-07T03:58:55.848Z,98154.00
2023-08-07T04:01:30.033Z,98153.00
2023-08-07T04:04:04.429Z,98146.00
2023-08-07T04:06:38.595Z,98154.00
2023-08-07T04:09:12.707Z,98156.00
2023-08-07T04:11:46.857Z,98153.00
2023-08-07T04:14:22.750Z,98152.00
2023-08-07T04:16:57.555Z,98153.00
2023-08-07T04:19:31.953Z,98151.00
2023-08-07T04:22:06.567Z,98157.00
2023-08-07T04:24:40.658Z,98158.00
2023-08-07T04:27:14.782Z,98154.00
2023-08-07T04:29:50.298Z,98153.00
2023-08-07T04:32:26.700Z,98147.00
2023-08-07T04:35:01.681Z,98143.00
2023-08-07T04:37:35.846Z,98141.00
2023-08-07T04:40:11.896Z,98149.00
2023-08-07T04:42:45.995Z,98155.00
2023-08-07T04:45:21.426Z,98150.00
2023-08-07T04:47:55.620Z,98158.00
2023-08-07T04:50:30.197Z,98156.00
2023-08-07T04:53:04.657Z,98160.00
2023-08-07T04:55:38.890Z,98161.00
2023-08-07T04:58:13.034Z,98158.00
2023-08-07T05:00:48.643Z,98159.00
2023-08-07T05:03:22.857Z,98159.00
2023-08-07T05:06:01.500Z,98170.00
2023-08-07T05:08:35.637Z,98167.00
2023-08-07T05:11:09.794Z,98173.00
2023-08-07T05:13:43.916Z,98169.00
2023-08-07T05:16:20.238Z,98167.00
2023-08-07T05:18:54.923Z,98166.00
2023-08-07T05:21:28.977Z,98171.00
2023-08-07T05:24:03.235Z,98177.00
2023-08-07T05:26:37.403Z,98178.00
2023-08-07T05:29:11.634Z,98171.00
2023-08-07T05:31:47.157Z,98184.00
2023-08-07T05:34:22.244Z,98185.00
2023-08-07T05:36:56.379Z,98191.00
2023-08-07T05:39:30.512Z,98195.00
2023-08-07T05:42:05.570Z,98197.00
2023-08-07T05:44:39.797Z,98202.00
2023-08-07T05:47:15.336Z,98197.00
2023-08-07T05:49:49.526Z,98197.00
2023-08-07T05:52:24.003Z,98200.00
2023-08-07T05:54:58.162Z,98209.00
2023-08-07T05:57:32.324Z,98202.00
2023-08-07T06:00:08.925Z,98206.00
2023-08-07T06:02:44.529Z,98208.00
2023-08-07T06:05:19.058Z,98211.00
2023-08-07T06:07:54.188Z,98222.00
2023-08-07T06:10:28.571Z,98221.00
2023-08-07T06:13:02.944Z,98231.00
2023-08-07T06:15:37.088Z,98232.00
2023-08-07T06:18:12.519Z,98232.00
2023-08-07T06:20:47.067Z,98242.00
2023-08-07T06:23:21.287Z,98244.00
2023-08-07T06:25:58.509Z,98242.00
2023-08-07T06:28:35.334Z,98247.00
2023-08-07T06:31:11.713Z,98237.00
2023-08-07T06:33:47.239Z,98238.00
2023-08-07T06:36:21.425Z,98242.00
2023-08-07T06:38:55.628Z,98246.00
2023-08-07T06:41:29.847Z,98245.00
2023-08-07T06:44:04.015Z,98240.00
2023-08-07T06:46:38.138Z,98248.00
2023-08-07T06:49:14.154Z,98249.00
2023-08-07T06:51:48.478Z,98251.00
2023-08-07T06:54:23.102Z,98258.00
2023-08-07T06:56:57.250Z,98243.00
2023-08-07T06:59:31.360Z,98253.00
2023-08-07T07:02:06.239Z,98248.00
2023-08-07T07:04:42.266Z,98255.00
2023-08-07T07:07:16.481Z,98248.00
2023-08-07T07:09:50.645Z,98246.00
2023-08-07T07:12:24.745Z,98246.00
2023-08-07T07:14:59.217Z,98262.00
2023-08-07T07:17:33.508Z,98260.00
2023-08-07T07:20:11.624Z,98255.00
2023-08-07T07:22:45.768Z,98259.00
2023-08-07T07:25:20.234Z,98255.00
2023-08-07T07:27:54.709Z,98252.00
2023-08-07T07:30:28.926Z,98264.00
2023-08-07T07:33:03.113Z,98262.00
2023-08-07T07:35:41.662Z,98257.00
2023-08-07T07:38:16.566Z,98268.00
2023-08-07T07:40:50.724Z,98273.00
2023-08-07T07:43:24.907Z,98274.00
2023-08-07T07:45:59.125Z,98285.00
2023-08-07T07:48:36.169Z,98283.00
2023-08-07T07:51:11.674Z,98272.00
2023-08-07T07:53:45.898Z,98274.00
2023-08-07T07:56:20.050Z,98272.00
2023-08-07T07:58:54.223Z,98269.00
2023-08-07T08:01:29.461Z,98278.00
2023-08-07T08:04:03.775Z,98268.00
2023-08-07T08:06:39.753Z,98274.00
2023-08-07T08:09:13.937Z,98285.00
2023-08-07T08:11:48.025Z,98280.00
2023-08-07T08:14:22.194Z,98278.00
2023-08-07T08:16:56.495Z,98281.00
2023-08-07T08:19:38.551Z,98283.00
2023-08-07T08:22:21.337Z,98283.00
2023-08-07T08:24:55.440Z,98288.00
2023-08-07T08:27:29.739Z,98291.00
2023-08-07T08:30:05.812Z,98290.00
2023-08-07T08:32:41.282Z,98293.00
2023-08-07T08:35:15.642Z,98297.00
2023-08-07T08:37:51.156Z,98303.00
2023-08-07T08:40:26.821Z,98301.00
2023-08-07T08:43:02.947Z,98299.00
2023-08-07T08:45:39.106Z,98299.00
2023-08-07T08:48:22.939Z,98296.00
2023-08-07T08:50:57.675Z,98297.00
2023-08-07T08:53:34.126Z,98311.00
2023-08-07T08:56:08.935Z,98296.00
2023-08-07T08:58:43.716Z,98303.00
2023-08-07T09:01:19.565Z,98309.00
2023-08-07T09:03:58.020Z,98299.00
2023-08-07T09:06:34.168Z,98302.00
2023-08-07T09:09:10.924Z,98303.00
2023-08-07T09:11:46.373Z,98322.00
2023-08-07T09:14:26.513Z,98322.00
2023-08-07T09:17:03.159Z,98314.00
2023-08-07T09:19:37.489Z,98320.00
2023-08-07T09:22:11.686Z,98324.00
2023-08-07T09:24:47.124Z,98323.00
2023-08-07T09:27:22.393Z,98332.00
2023-08-07T09:29:58.128Z,98321.00
2023-08-07T09:32:32.321Z,98329.00
2023-08-07T09:35:09.723Z,98332.00
2023-08-07T09:37:45.889Z,98334.00
2023-08-07T09:40:22.605Z,98340.00
2023-08-07T09:42:57.213Z,98339.00
2023-08-07T09:45:32.990Z,98342.00
2023-08-07T09:48:08.473Z,98342.00
2023-08-07T09:50:42.665Z,98355.00
2023-08-07T09:53:17.179Z,98337.00
2023-08-07T09:55:54.670Z,98354.00
2023-08-07T09:58:28.927Z,98349.00
2023-08-07T10:01:06.210Z,98342.00
2023-08-07T10:03:41.295Z,98343.00
2023-08-07T10:06:16.095Z,98370.00
2023-08-07T10:08:54.318Z,98358.00
2023-08-07T10:11:30.830Z,98355.00
2023-08-07T10:14:05.088Z,98356.00
2023-08-07T10:16:42.222Z,98364.00
2023-08-07T10:19:16.371Z,98379.00
2023-08-07T10:21:51.883Z,98372.00
2023-08-07T10:24:26.620Z,98375.00
2023-08-07T10:27:02.756Z,98387.00
2023-08-07T10:29:38.616Z,98371.00
2023-08-07T10:32:13.475Z,98369.00
2023-08-07T10:34:49.987Z,98367.00
2023-08-07T10:37:42.264Z,98370.00
2023-08-07T10:40:16.485Z,98368.00
2023-08-07T10:43:19.495Z,98366.00
2023-08-07T10:45:53.938Z,98365.00
2023-08-07T10:48:30.121Z,98377.00
2023-08-07T10:51:06.563Z,98378.00
2023-08-07T10:53:45.510Z,98357.00
2023-08-07T10:56:31.930Z,98365.00
2023-08-07T10:59:13.222Z,98374.00
2023-08-07T11:01:53.942Z,98364.00
2023-08-07T11:04:28.517Z,98369.00
2023-08-07T11:07:02.706Z,98362.00
2023-08-07T11:09:37.266Z,98366.00
2023-08-07T11:12:11.317Z,98356.00
2023-08-07T11:14:46.846Z,98368.00
2023-08-07T11:17:21.515Z,98376.00
2023-08-07T11:19:56.089Z,98381.00
2023-08-07T11:22:30.232Z,98376.00
2023-08-07T11:25:05.783Z,98386.00
2023-08-07T11:27:39.977Z,98380.00
2023-08-07T11:30:15.691Z,98376.00
2023-08-07T11:32:49.898Z,98381.00
2023-08-07T11:35:25.128Z,98370.00
2023-08-07T11:38:02.492Z,98382.00
2023-08-07T11:40:36.601Z,98375.00
2023-08-07T11:43:10.931Z,98377.00
2023-08-07T11:45:46.691Z,98385.00
2023-08-07T11:48:20.969Z,98389.00
2023-08-07T11:50:56.398Z,98392.00
2023-08-07T11:53:33.065Z,98390.00
2023-08-07T11:56:10.409Z,98389.00
2023-08-07T11:58:47.214Z,98390.00
2023-08-07T12:01:25.332Z,98388.00
2023-08-07T12:04:11.272Z,98389.00
2023-08-07T12:06:57.323Z,98390.00
2023-08-07T12:09:32.993Z,98391.00
2023-08-07T12:12:09.607Z,98404.00
2023-08-07T12:14:43.757Z,98389.00
2023-08-07T12:17:20.086Z,98404.00
2023-08-07T12:19:54.244Z,98396.00
2023-08-07T12:22:30.323Z,98412.00
2023-08-07T12:25:04.878Z,98406.00
2023-08-07T12:27:38.983Z,98410.00
2023-08-07T12:30:15.688Z,98415.00
2023-08-07T12:32:51.512Z,98418.00
2023-08-07T12:35:25.874Z,98423.00
2023-08-07T12:38:00.046Z,98416.00
2023-08-07T12:40:36.789Z,98428.00
2023-08-07T12:43:11.183Z,98429.00
2023-08-07T12:48:24.177Z,98454.00
2023-08-07T12:50:58.437Z,98441.00
2023-08-07T12:53:32.915Z,98447.00
2023-08-07T12:56:07.063Z,98445.00
2023-08-07T12:58:43.974Z,98442.00
2023-08-07T13:01:18.075Z,98435.00
2023-08-07T13:03:57.010Z,98439.00
2023-08-07T13:06:31.236Z,98437.00
2023-08-07T13:09:05.730Z,98443.00
2023-08-07T13:11:39.957Z,98445.00
2023-08-07T13:14:14.031Z,98438.00
2023-08-07T13:16:48.486Z,98442.00
2023-08-07T13:19:24.419Z,98445.00
2023-08-07T13:21:58.780Z,98450.00
2023-08-07T13:24:33.186Z,98445.00
2023-08-07T13:27:08.393Z,98449.00
2023-08-07T13:29:42.466Z,98442.00
2023-08-07T13:32:19.375Z,98451.00
2023-08-07T13:34:55.081Z,98453.00
2023-08-07T13:37:29.229Z,98446.00
2023-08-07T13:40:05.613Z,98444.00
2023-08-07T13:42:39.942Z,98446.00
2023-08-07T13:45:14.997Z,98452.00
2023-08-07T13:47:49.274Z,98451.00
2023-08-07T13:50:25.307Z,98449.00
2023-08-07T13:53:12.876Z,98439.00
2023-08-07T13:55:49.337Z,98441.00
2023-08-07T13:58:23.662Z,98445.00
2023-08-07T14:00:58.646Z,98452.00
2023-08-07T14:03:33.021Z,98449.00
2023-08-07T14:06:08.606Z,98441.00
2023-08-07T14:08:42.787Z,98438.00
2023-08-07T14:11:17.093Z,98437.00
2023-08-07T14:13:51.145Z,98442.00
2023-08-07T14:16:25.552Z,98438.00
2023-08-07T14:19:00.028Z,98444.00
2023-08-07T14:21:35.599Z,98443.00
2023-08-07T14:24:09.665Z,98444.00
2023-08-07T14:26:43.939Z,98438.00
2023-08-07T14:29:18.207Z,98433.00
2023-08-07T14:31:52.587Z,98430.00
2023-08-07T14:34:26.699Z,98414.00
2023-08-07T14:37:02.149Z,98427.00
2023-08-07T14:39:36.735Z,98424.00
2023-08-07T14:42:10.955Z,98425.00
2023-08-07T14:44:45.091Z,98429.00
2023-08-07T14:47:20.437Z,98435.00
2023-08-07T14:49:55.382Z,98440.00
2023-08-07T14:52:33.540Z,98433.00
2023-08-07T14:55:09.210Z,98426.00
2023-08-07T14:57:44.841Z,98430.00
2023-08-07T15:00:21.244Z,98425.00
2023-08-07T15:02:55.823Z,98423.00
2023-08-07T15:05:32.446Z,98428.00
2023-08-07T15:08:08.294Z,98428.00
2023-08-07T15:10:42.673Z,98430.00
2023-08-07T15:13:16.789Z,98432.00
2023-08-07T15:15:50.980Z,98435.00
2023-08-07T15:18:25.688Z,98426.00
2023-08-07T15:21:01.829Z,98431.00
2023-08-07T15:23:37.496Z,98429.00
2023-08-07T15:26:11.766Z,98439.00
2023-08-07T15:28:46.584Z,98449.00
2023-08-07T15:31:21.065Z,98448.00
2023-08-07T15:33:57.273Z,98449.00
2023-08-07T15:36:31.480Z,98455.00
2023-08-07T15:39:07.019Z,98450.00
2023-08-07T15:41:41.159Z,98445.00
2023-08-07T15:44:15.456Z,98445.00
2023-08-07T15:46:49.963Z,98446.00
2023-08-07T15:49:24.378Z,98448.00
2023-08-07T15:51:58.608Z,98455.00
2023-08-07T15:54:34.729Z,98448.00
2023-08-07T15:57:08.987Z,98449.00
2023-08-07T15:59:43.121Z,98436.00
2023-08-07T16:02:17.339Z,98440.00
2023-08-07T16:04:51.516Z,98442.00
2023-08-07T16:07:27.387Z,98442.00
2023-08-07T16:10:03.086Z,98437.00
2023-08-07T16:12:37.631Z,98443.00
2023-08-07T16:15:11.962Z,98443.00
2023-08-07T16:17:46.360Z,98438.00
2023-08-07T16:20:20.984Z,98448.00
2023-08-07T16:22:55.293Z,98446.00
2023-08-07T16:25:31.083Z,98439.00
2023-08-07T16:28:06.617Z,98442.00
2023-08-07T16:30:41.249Z,98440.00
2023-08-07T16:33:15.441Z,98436.00
2023-08-07T16:35:49.830Z,98435.00
2023-08-07T16:38:23.968Z,98437.00
2023-08-07T16:40:59.474Z,98431.00
2023-08-07T16:43:34.539Z,98434.00
2023-08-07T16:46:09.704Z,98440.00
2023-08-07T16:48:43.877Z,98433.00
2023-08-07T16:51:19.865Z,98435.00
2023-08-07T16:53:54.078Z,98426.00
2023-08-07T16:56:30.231Z,98430.00
2023-08-07T16:59:04.494Z,98424.00
2023-08-07T17:01:38.900Z,98423.00
2023-08-07T17:04:13.324Z,98427.00
2023-08-07T17:06:47.646Z,98430.00
2023-08-07T17:09:23.361Z,98430.00
2023-08-07T17:11:59.432Z,98435.00
2023-08-07T17:14:33.719Z,98424.00
2023-08-07T17:17:08.002Z,98435.00
2023-08-07T17:19:44.904Z,98432.00
2023-08-07T17:22:19.165Z,98426.00
2023-08-07T17:24:53.914Z,98430.00
2023-08-07T17:27:31.007Z,98432.00
2023-08-07T17:30:06.452Z,98436.00
2023-08-07T17:32:40.706Z,98429.00
2023-08-07T17:35:14.866Z,98433.00
2023-08-07T17:37:48.978Z,98438.00
2023-08-07T17:40:24.899Z,98434.00
2023-08-07T17:43:00.581Z,98441.00
2023-08-07T17:45:35.622Z,98449.00
2023-08-07T17:48:09.961Z,98454.00
2023-08-07T17:50:44.322Z,98454.00
2023-08-07T17:53:18.621Z,98449.00
2023-08-07T17:55:52.945Z,98457.00
2023-08-07T17:58:28.530Z,98451.00
2023-08-07T18:01:05.421Z,98450.00
2023-08-07T18:03:40.314Z,98451.00
2023-08-07T18:06:15.756Z,98459.00
2023-08-07T18:08:50.214Z,98453.00
2023-08-07T18:11:24.629Z,98448.00
2023-08-07T18:14:00.699Z,98451.00
2023-08-07T18:16:35.709Z,98456.00
2023-08-07T18:19:10.467Z,98448.00
2023-08-07T18:21:45.375Z,98454.00
2023-08-07T18:24:20.054Z,98453.00
2023-08-07T18:26:57.676Z,98456.00
2023-08-07T18:29:33.491Z,98460.00
2023-08-07T18:32:11.681Z,98465.00
2023-08-07T18:34:45.964Z,98458.00
2023-08-07T18:37:22.886Z,98461.00
2023-08-07T18:39:57.492Z,98462.00
2023-08-07T18:42:31.924Z,98462.00
2023-08-07T18:45:09.638Z,98466.00
2023-08-07T18:47:44.225Z,98473.00
2023-08-07T18:50:18.922Z,98481.00
2023-08-07T18:52:56.388Z,98471.00
2023-08-07T18:55:31.224Z,98477.00
2023-08-07T18:58:06.182Z,98477.00
2023-08-07T19:00:41.895Z,98478.00
2023-08-07T19:03:18.033Z,98480.00
2023-08-07T19:05:53.226Z,98483.00
2023-08-07T19:08:27.598Z,98482.00
2023-08-07T19:11:02.871Z,98477.00
2023-08-07T19:13:38.384Z,98484.00
2023-08-07T19:16:14.020Z,98485.00
2023-08-07T19:18:48.313Z,98482.00
2023-08-07T19:21:22.810Z,98489.00
2023-08-07T19:23:57.324Z,98482.00
2023-08-07T19:26:31.597Z,98482.00
2023-08-07T19:29:05.964Z,98480.00
2023-08-07T19:31:42.074Z,98484.00
2023-08-07T19:34:17.598Z,98478.00
2023-08-07T19:36:51.813Z,98481.00
2023-08-07T19:39:26.610Z,98480.00
2023-08-07T19:42:01.054Z,98478.00
2023-08-07T19:44:36.573Z,98477.00
2023-08-07T19:47:19.254Z,98480.00
2023-08-07T19:50:04.845Z,98485.00
2023-08-07T19:52:39.091Z,98477.00
2023-08-07T19:55:14.234Z,98481.00
2023-08-07T19:57:48.526Z,98483.00
2023-08-07T20:00:23.046Z,98484.00
2023-08-07T20:02:58.630Z,98480.00
2023-08-07T20:05:33.086Z,98485.00
2023-08-07T20:08:07.701Z,98478.00
2023-08-07T20:10:41.883Z,98480.00
2023-08-07T20:13:16.680Z,98477.00
2023-08-07T20:15:50.901Z,98476.00
2023-08-07T20:18:26.857Z,98478.00
2023-08-07T20:21:01.089Z,98479.00
2023-08-07T20:23:35.543Z,98481.00
2023-08-07T20:26:10.472Z,98488.00
2023-08-07T20:28:44.835Z,98486.00
2023-08-07T20:31:19.252Z,98477.00
2023-08-07T20:33:59.243Z,98481.00
2023-08-07T20:36:34.176Z,98479.00
2023-08-07T20:39:08.526Z,98481.00
2023-08-07T20:41:42.739Z,98477.00
2023-08-07T20:44:16.894Z,98478.00
2023-08-07T20:46:51.087Z,98475.00
2023-08-07T20:49:26.633Z,98469.00
2023-08-07T20:52:01.088Z,98471.00
2023-08-07T20:54:36.291Z,98477.00
2023-08-07T20:57:10.595Z,98479.00
2023-08-07T20:59:44.840Z,98479.00
2023-08-07T21:02:19.117Z,98477.00
2023-08-07T21:04:54.930Z,98479.00
2023-08-07T21:07:29.302Z,98475.00
2023-08-07T21:10:03.692Z,98457.00
2023-08-07T21:12:38.096Z,98471.00
2023-08-07T21:15:12.810Z,98458.00
2023-08-07T21:17:49.146Z,98463.00
2023-08-07T21:20:25.338Z,98462.00
2023-08-07T21:22:59.601Z,98463.00
2023-08-07T21:25:33.924Z,98459.00
2023-08-07T21:28:11.643Z,98457.00
2023-08-07T21:30:46.061Z,98450.00
2023-08-07T21:33:20.292Z,98451.00
2023-08-07T21:35:55.981Z,98451.00
2023-08-07T21:38:30.213Z,98458.00
2023-08-07T21:41:04.854Z,98451.00
2023-08-07T21:43:39.309Z,98445.00
2023-08-07T21:46:13.913Z,98439.00
2023-08-07T21:48:48.269Z,98453.00
2023-08-07T21:51:25.707Z,98449.00
2023-08-07T21:54:00.170Z,98445.00
2023-08-07T21:56:34.640Z,98448.00
2023-08-07T21:59:08.854Z,98444.00
2023-08-07T22:01:43.116Z,98449.00
2023-08-07T22:04:17.353Z,98446.00
2023-08-07T22:06:53.468Z,98453.00
2023-08-07T22:09:27.701Z,98443.00
2023-08-07T22:12:02.087Z,98445.00
2023-08-07T22:14:36.565Z,98452.00
2023-08-07T22:17:10.724Z,98444.00
2023-08-07T22:19:51.726Z,98438.00
2023-08-07T22:22:39.222Z,98444.00
2023-08-07T22:25:13.994Z,98445.00
2023-08-07T22:27:48.958Z,98439.00
2023-08-07T22:30:23.307Z,98443.00
2023-08-07T22:32:59.273Z,98446.00
2023-08-07T22:35:33.786Z,98438.00
2023-08-07T22:38:09.369Z,98435.00
2023-08-07T22:40:43.727Z,98433.00
2023-08-07T22:43:18.179Z,98427.00
2023-08-07T22:45:52.562Z,98422.00
2023-08-07T22:48:26.944Z,98424.00
2023-08-07T22:51:01.104Z,98419.00
2023-08-07T22:53:36.763Z,98417.00
2023-08-07T22:56:11.099Z,98414.00
2023-08-07T22:58:45.332Z,98416.00
2023-08-07T23:01:19.516Z,98417.00
2023-08-07T23:03:53.808Z,98417.00
2023-08-07T23:06:28.095Z,98409.00
2023-08-07T23:09:03.697Z,98404.00
2023-08-07T23:11:37.988Z,98412.00
2023-08-07T23:14:12.241Z,98403.00
2023-08-07T23:16:46.652Z,98410.00
2023-08-07T23:19:21.287Z,98412.00
2023-08-07T23:21:55.539Z,98405.00
2023-08-07T23:24:31.220Z,98398.00
2023-08-07T23:27:07.881Z,98393.00
2023-08-07T23:29:44.022Z,98409.00
2023-08-07T23:32:18.403Z,98389.00
2023-08-07T23:34:52.714Z,98396.00
2023-08-07T23:37:27.088Z,98385.00
2023-08-07T23:40:03.274Z,98390.00
2023-08-07T23:42:37.664Z,98383.00
2023-08-07T23:45:12.611Z,98389.00
2023-08-07T23:47:46.970Z,98386.00
2023-08-07T23:50:21.421Z,98380.00
2023-08-07T23:52:55.670Z,98386.00
2023-08-07T23:55:32.185Z,98377.00
2023-08-07T23:58:08.485Z,98372.00
